sensor_id;sensor_type;location;lat;lon;timestamp;P1;durP1;ratioP1;P2;durP2;ratioP2
11620;SDS011;5866;49.094;11.900;2023-03-31T00:00:28;10.53;;;7.03;;
11620;SDS011;5866;49.094;11.900;2023-03-31T00:02:55;8.83;;;6.20;;
11620;SDS011;5866;49.094;11.900;2023-03-31T00:05:24;6.03;;;5.33;;
11620;SDS011;5866;49.094;11.900;2023-03-31T00:07:52;6.67;;;6.07;;
11620;SDS011;5866;49.094;11.900;2023-03-31T00:10:21;7.20;;;5.50;;
11620;SDS011;5866;49.094;11.900;2023-03-31T00:12:49;6.43;;;5.83;;
11620;SDS011;5866;49.094;11.900;2023-03-31T00:15:16;8.73;;;6.70;;
11620;SDS011;5866;49.094;11.900;2023-03-31T00:17:44;7.53;;;6.67;;
11620;SDS011;5866;49.094;11.900;2023-03-31T00:20:12;8.50;;;6.33;;
11620;SDS011;5866;49.094;11.900;2023-03-31T00:22:40;8.57;;;7.77;;
11620;SDS011;5866;49.094;11.900;2023-03-31T00:25:11;7.93;;;7.13;;
11620;SDS011;5866;49.094;11.900;2023-03-31T00:27:42;10.70;;;9.63;;
11620;SDS011;5866;49.094;11.900;2023-03-31T00:30:11;9.17;;;6.70;;
11620;SDS011;5866;49.094;11.900;2023-03-31T00:32:39;7.97;;;6.10;;
11620;SDS011;5866;49.094;11.900;2023-03-31T00:35:07;6.87;;;5.90;;
11620;SDS011;5866;49.094;11.900;2023-03-31T00:37:35;9.20;;;8.43;;
11620;SDS011;5866;49.094;11.900;2023-03-31T00:40:04;12.53;;;11.53;;
11620;SDS011;5866;49.094;11.900;2023-03-31T00:42:38;12.20;;;10.97;;
11620;SDS011;5866;49.094;11.900;2023-03-31T00:45:29;9.20;;;8.23;;
11620;SDS011;5866;49.094;11.900;2023-03-31T00:48:00;8.63;;;7.47;;
11620;SDS011;5866;49.094;11.900;2023-03-31T00:50:36;9.80;;;6.47;;
11620;SDS011;5866;49.094;11.900;2023-03-31T00:53:11;9.57;;;8.47;;
11620;SDS011;5866;49.094;11.900;2023-03-31T00:55:44;9.70;;;6.20;;
11620;SDS011;5866;49.094;11.900;2023-03-31T00:58:15;6.17;;;5.60;;
11620;SDS011;5866;49.094;11.900;2023-03-31T01:00:47;8.70;;;6.40;;
11620;SDS011;5866;49.094;11.900;2023-03-31T01:03:18;10.37;;;6.97;;
11620;SDS011;5866;49.094;11.900;2023-03-31T01:05:48;9.47;;;6.20;;
11620;SDS011;5866;49.094;11.900;2023-03-31T01:08:19;9.17;;;6.57;;
11620;SDS011;5866;49.094;11.900;2023-03-31T01:10:51;9.40;;;7.30;;
11620;SDS011;5866;49.094;11.900;2023-03-31T01:13:21;10.43;;;6.57;;
11620;SDS011;5866;49.094;11.900;2023-03-31T01:15:52;8.20;;;7.40;;
11620;SDS011;5866;49.094;11.900;2023-03-31T01:18:20;8.43;;;7.30;;
11620;SDS011;5866;49.094;11.900;2023-03-31T01:21:00;11.60;;;7.83;;
11620;SDS011;5866;49.094;11.900;2023-03-31T01:23:51;10.97;;;9.87;;
11620;SDS011;5866;49.094;11.900;2023-03-31T01:26:41;13.50;;;12.13;;
11620;SDS011;5866;49.094;11.900;2023-03-31T01:29:35;18.37;;;16.60;;
11620;SDS011;5866;49.094;11.900;2023-03-31T01:32:34;15.13;;;13.77;;
11620;SDS011;5866;49.094;11.900;2023-03-31T01:35:45;14.87;;;13.50;;
11620;SDS011;5866;49.094;11.900;2023-03-31T01:41:32;34.53;;;32.27;;
11620;SDS011;5866;49.094;11.900;2023-03-31T01:44:07;25.27;;;23.57;;
11620;SDS011;5866;49.094;11.900;2023-03-31T01:46:45;12.20;;;10.47;;
11620;SDS011;5866;49.094;11.900;2023-03-31T01:49:21;12.87;;;11.63;;
11620;SDS011;5866;49.094;11.900;2023-03-31T01:51:56;10.07;;;9.10;;
11620;SDS011;5866;49.094;11.900;2023-03-31T01:54:28;27.00;;;25.20;;
11620;SDS011;5866;49.094;11.900;2023-03-31T01:57:07;31.67;;;29.30;;
11620;SDS011;5866;49.094;11.900;2023-03-31T01:59:42;36.63;;;33.87;;
11620;SDS011;5866;49.094;11.900;2023-03-31T02:02:16;78.07;;;73.53;;
11620;SDS011;5866;49.094;11.900;2023-03-31T02:04:49;89.30;;;84.13;;
11620;SDS011;5866;49.094;11.900;2023-03-31T02:07:20;51.50;;;48.17;;
11620;SDS011;5866;49.094;11.900;2023-03-31T02:09:55;42.47;;;39.53;;
11620;SDS011;5866;49.094;11.900;2023-03-31T02:12:27;71.93;;;67.70;;
11620;SDS011;5866;49.094;11.900;2023-03-31T02:14:57;21.60;;;19.90;;
11620;SDS011;5866;49.094;11.900;2023-03-31T02:17:27;21.47;;;19.70;;
11620;SDS011;5866;49.094;11.900;2023-03-31T02:20:04;20.63;;;18.80;;
11620;SDS011;5866;49.094;11.900;2023-03-31T02:22:38;31.73;;;29.43;;
11620;SDS011;5866;49.094;11.900;2023-03-31T02:25:09;32.97;;;30.53;;
11620;SDS011;5866;49.094;11.900;2023-03-31T02:27:42;18.73;;;17.27;;
11620;SDS011;5866;49.094;11.900;2023-03-31T02:30:13;19.10;;;17.60;;
11620;SDS011;5866;49.094;11.900;2023-03-31T02:32:41;17.23;;;15.83;;
11620;SDS011;5866;49.094;11.900;2023-03-31T02:35:13;16.80;;;15.57;;
11620;SDS011;5866;49.094;11.900;2023-03-31T02:37:43;21.53;;;20.07;;
11620;SDS011;5866;49.094;11.900;2023-03-31T02:40:13;24.03;;;22.13;;
11620;SDS011;5866;49.094;11.900;2023-03-31T02:42:44;21.73;;;20.13;;
11620;SDS011;5866;49.094;11.900;2023-03-31T02:48:13;73.17;;;69.10;;
11620;SDS011;5866;49.094;11.900;2023-03-31T02:50:50;73.10;;;68.90;;
11620;SDS011;5866;49.094;11.900;2023-03-31T02:53:28;56.93;;;53.40;;
11620;SDS011;5866;49.094;11.900;2023-03-31T02:56:15;57.67;;;54.07;;
11620;SDS011;5866;49.094;11.900;2023-03-31T02:58:58;15.50;;;13.97;;
11620;SDS011;5866;49.094;11.900;2023-03-31T03:01:40;11.00;;;10.00;;
11620;SDS011;5866;49.094;11.900;2023-03-31T03:04:23;13.03;;;11.83;;
11620;SDS011;5866;49.094;11.900;2023-03-31T03:07:02;106.20;;;100.30;;
11620;SDS011;5866;49.094;11.900;2023-03-31T03:09:39;8.60;;;6.53;;
11620;SDS011;5866;49.094;11.900;2023-03-31T03:12:17;8.07;;;7.13;;
11620;SDS011;5866;49.094;11.900;2023-03-31T03:14:54;40.00;;;37.50;;
11620;SDS011;5866;49.094;11.900;2023-03-31T03:17:26;34.40;;;32.03;;
11620;SDS011;5866;49.094;11.900;2023-03-31T03:19:59;23.30;;;21.67;;
11620;SDS011;5866;49.094;11.900;2023-03-31T03:22:29;16.30;;;14.80;;
11620;SDS011;5866;49.094;11.900;2023-03-31T03:24:56;10.88;;;9.88;;
11620;SDS011;5866;49.094;11.900;2023-03-31T03:27:24;11.80;;;10.63;;
11620;SDS011;5866;49.094;11.900;2023-03-31T03:29:53;14.63;;;13.23;;
11620;SDS011;5866;49.094;11.900;2023-03-31T03:32:20;18.07;;;16.87;;
11620;SDS011;5866;49.094;11.900;2023-03-31T03:34:48;13.98;;;12.75;;
11620;SDS011;5866;49.094;11.900;2023-03-31T03:37:16;12.27;;;11.23;;
11620;SDS011;5866;49.094;11.900;2023-03-31T03:39:43;13.00;;;11.90;;
11620;SDS011;5866;49.094;11.900;2023-03-31T03:42:11;11.17;;;10.10;;
11620;SDS011;5866;49.094;11.900;2023-03-31T03:44:39;10.10;;;8.47;;
11620;SDS011;5866;49.094;11.900;2023-03-31T03:47:08;8.70;;;7.60;;
11620;SDS011;5866;49.094;11.900;2023-03-31T03:49:36;7.60;;;6.90;;
11620;SDS011;5866;49.094;11.900;2023-03-31T03:52:03;11.03;;;10.10;;
11620;SDS011;5866;49.094;11.900;2023-03-31T03:54:31;12.45;;;11.13;;
11620;SDS011;5866;49.094;11.900;2023-03-31T03:56:59;11.52;;;10.50;;
11620;SDS011;5866;49.094;11.900;2023-03-31T03:59:26;12.50;;;11.45;;
11620;SDS011;5866;49.094;11.900;2023-03-31T04:01:54;12.03;;;11.03;;
11620;SDS011;5866;49.094;11.900;2023-03-31T04:04:23;13.43;;;12.33;;
11620;SDS011;5866;49.094;11.900;2023-03-31T04:06:50;12.55;;;11.40;;
11620;SDS011;5866;49.094;11.900;2023-03-31T04:09:18;14.77;;;13.53;;
11620;SDS011;5866;49.094;11.900;2023-03-31T04:11:46;13.07;;;11.03;;
11620;SDS011;5866;49.094;11.900;2023-03-31T04:14:13;15.23;;;13.53;;
11620;SDS011;5866;49.094;11.900;2023-03-31T04:16:41;14.17;;;12.77;;
11620;SDS011;5866;49.094;11.900;2023-03-31T04:19:12;14.93;;;13.75;;
11620;SDS011;5866;49.094;11.900;2023-03-31T04:21:44;13.75;;;12.55;;
11620;SDS011;5866;49.094;11.900;2023-03-31T04:24:11;12.77;;;11.50;;
11620;SDS011;5866;49.094;11.900;2023-03-31T04:26:41;14.57;;;13.37;;
11620;SDS011;5866;49.094;11.900;2023-03-31T04:29:09;11.67;;;10.20;;
11620;SDS011;5866;49.094;11.900;2023-03-31T04:31:38;12.43;;;9.73;;
11620;SDS011;5866;49.094;11.900;2023-03-31T04:34:08;11.23;;;10.03;;
11620;SDS011;5866;49.094;11.900;2023-03-31T04:36:39;9.03;;;8.23;;
11620;SDS011;5866;49.094;11.900;2023-03-31T04:39:14;9.07;;;6.87;;
11620;SDS011;5866;49.094;11.900;2023-03-31T04:41:42;12.27;;;7.43;;
11620;SDS011;5866;49.094;11.900;2023-03-31T04:44:10;8.60;;;7.73;;
11620;SDS011;5866;49.094;11.900;2023-03-31T04:46:38;8.70;;;7.60;;
11620;SDS011;5866;49.094;11.900;2023-03-31T04:49:06;11.23;;;7.93;;
11620;SDS011;5866;49.094;11.900;2023-03-31T04:51:33;9.77;;;8.30;;
11620;SDS011;5866;49.094;11.900;2023-03-31T04:54:01;8.97;;;8.07;;
11620;SDS011;5866;49.094;11.900;2023-03-31T04:56:30;9.37;;;8.47;;
11620;SDS011;5866;49.094;11.900;2023-03-31T04:58:57;10.90;;;8.73;;
11620;SDS011;5866;49.094;11.900;2023-03-31T05:01:25;15.03;;;13.77;;
11620;SDS011;5866;49.094;11.900;2023-03-31T05:03:53;14.90;;;13.60;;
11620;SDS011;5866;49.094;11.900;2023-03-31T05:06:20;25.73;;;23.83;;
11620;SDS011;5866;49.094;11.900;2023-03-31T05:08:48;23.77;;;21.73;;
11620;SDS011;5866;49.094;11.900;2023-03-31T05:11:15;20.57;;;18.80;;
11620;SDS011;5866;49.094;11.900;2023-03-31T05:13:44;21.17;;;19.07;;
11620;SDS011;5866;49.094;11.900;2023-03-31T05:16:12;21.60;;;19.80;;
11620;SDS011;5866;49.094;11.900;2023-03-31T05:18:41;20.63;;;17.77;;
11620;SDS011;5866;49.094;11.900;2023-03-31T05:21:10;24.13;;;22.23;;
11620;SDS011;5866;49.094;11.900;2023-03-31T05:23:38;30.13;;;28.03;;
11620;SDS011;5866;49.094;11.900;2023-03-31T05:26:06;25.92;;;23.92;;
11620;SDS011;5866;49.094;11.900;2023-03-31T05:28:34;21.60;;;19.80;;
11620;SDS011;5866;49.094;11.900;2023-03-31T05:31:04;22.00;;;20.00;;
11620;SDS011;5866;49.094;11.900;2023-03-31T05:33:32;22.93;;;20.93;;
11620;SDS011;5866;49.094;11.900;2023-03-31T05:36:05;22.60;;;20.60;;
11620;SDS011;5866;49.094;11.900;2023-03-31T05:38:35;18.38;;;16.85;;
11620;SDS011;5866;49.094;11.900;2023-03-31T05:41:02;16.80;;;15.40;;
11620;SDS011;5866;49.094;11.900;2023-03-31T05:43:31;18.42;;;16.70;;
11620;SDS011;5866;49.094;11.900;2023-03-31T05:45:59;19.30;;;17.75;;
11620;SDS011;5866;49.094;11.900;2023-03-31T05:48:28;18.33;;;17.00;;
11620;SDS011;5866;49.094;11.900;2023-03-31T05:50:55;24.20;;;21.93;;
11620;SDS011;5866;49.094;11.900;2023-03-31T05:53:24;18.70;;;17.10;;
11620;SDS011;5866;49.094;11.900;2023-03-31T05:55:55;18.90;;;17.08;;
11620;SDS011;5866;49.094;11.900;2023-03-31T05:58:23;19.47;;;17.63;;
11620;SDS011;5866;49.094;11.900;2023-03-31T06:00:58;18.67;;;16.97;;
11620;SDS011;5866;49.094;11.900;2023-03-31T06:03:28;19.90;;;18.40;;
11620;SDS011;5866;49.094;11.900;2023-03-31T06:05:56;32.63;;;30.33;;
11620;SDS011;5866;49.094;11.900;2023-03-31T06:08:24;31.08;;;28.90;;
11620;SDS011;5866;49.094;11.900;2023-03-31T06:10:52;26.00;;;24.00;;
11620;SDS011;5866;49.094;11.900;2023-03-31T06:13:19;32.07;;;29.97;;
11620;SDS011;5866;49.094;11.900;2023-03-31T06:15:51;34.53;;;32.13;;
11620;SDS011;5866;49.094;11.900;2023-03-31T06:18:19;33.70;;;31.43;;
11620;SDS011;5866;49.094;11.900;2023-03-31T06:20:48;32.07;;;29.53;;
11620;SDS011;5866;49.094;11.900;2023-03-31T06:23:17;46.30;;;43.17;;
11620;SDS011;5866;49.094;11.900;2023-03-31T06:25:44;28.92;;;26.48;;
11620;SDS011;5866;49.094;11.900;2023-03-31T06:28:17;38.37;;;35.67;;
11620;SDS011;5866;49.094;11.900;2023-03-31T06:30:45;68.43;;;64.43;;
11620;SDS011;5866;49.094;11.900;2023-03-31T06:33:12;81.07;;;76.43;;
11620;SDS011;5866;49.094;11.900;2023-03-31T06:35:41;52.35;;;48.63;;
11620;SDS011;5866;49.094;11.900;2023-03-31T06:38:10;15.80;;;14.35;;
11620;SDS011;5866;49.094;11.900;2023-03-31T06:40:37;81.60;;;77.18;;
11620;SDS011;5866;49.094;11.900;2023-03-31T06:43:05;48.38;;;45.38;;
11620;SDS011;5866;49.094;11.900;2023-03-31T06:45:32;46.60;;;43.70;;
11620;SDS011;5866;49.094;11.900;2023-03-31T06:48:00;23.65;;;21.90;;
11620;SDS011;5866;49.094;11.900;2023-03-31T06:50:28;39.72;;;37.13;;
11620;SDS011;5866;49.094;11.900;2023-03-31T06:52:55;15.18;;;13.68;;
11620;SDS011;5866;49.094;11.900;2023-03-31T06:55:25;15.20;;;11.83;;
11620;SDS011;5866;49.094;11.900;2023-03-31T06:57:52;71.47;;;67.32;;
11620;SDS011;5866;49.094;11.900;2023-03-31T07:00:20;53.25;;;49.80;;
11620;SDS011;5866;49.094;11.900;2023-03-31T07:02:51;58.90;;;55.17;;
11620;SDS011;5866;49.094;11.900;2023-03-31T07:05:18;35.10;;;32.60;;
11620;SDS011;5866;49.094;11.900;2023-03-31T07:07:51;31.77;;;29.60;;
11620;SDS011;5866;49.094;11.900;2023-03-31T07:10:19;35.30;;;32.92;;
11620;SDS011;5866;49.094;11.900;2023-03-31T07:12:49;29.75;;;27.67;;
11620;SDS011;5866;49.094;11.900;2023-03-31T07:15:16;43.30;;;40.40;;
11620;SDS011;5866;49.094;11.900;2023-03-31T07:17:44;32.90;;;30.60;;
11620;SDS011;5866;49.094;11.900;2023-03-31T07:20:17;30.50;;;28.52;;
11620;SDS011;5866;49.094;11.900;2023-03-31T07:22:45;33.42;;;30.83;;
11620;SDS011;5866;49.094;11.900;2023-03-31T07:25:15;26.65;;;24.48;;
11620;SDS011;5866;49.094;11.900;2023-03-31T07:27:43;18.25;;;16.70;;
11620;SDS011;5866;49.094;11.900;2023-03-31T07:30:13;18.15;;;16.50;;
11620;SDS011;5866;49.094;11.900;2023-03-31T07:32:42;25.52;;;23.73;;
11620;SDS011;5866;49.094;11.900;2023-03-31T07:35:10;16.65;;;15.02;;
11620;SDS011;5866;49.094;11.900;2023-03-31T07:37:38;16.00;;;14.55;;
11620;SDS011;5866;49.094;11.900;2023-03-31T07:40:07;15.85;;;13.52;;
11620;SDS011;5866;49.094;11.900;2023-03-31T07:42:37;15.32;;;14.02;;
11620;SDS011;5866;49.094;11.900;2023-03-31T07:45:05;17.65;;;16.05;;
11620;SDS011;5866;49.094;11.900;2023-03-31T07:47:35;19.02;;;17.35;;
11620;SDS011;5866;49.094;11.900;2023-03-31T07:50:04;19.55;;;17.95;;
11620;SDS011;5866;49.094;11.900;2023-03-31T07:52:32;27.67;;;25.80;;
11620;SDS011;5866;49.094;11.900;2023-03-31T07:55:00;26.02;;;24.17;;
11620;SDS011;5866;49.094;11.900;2023-03-31T07:57:28;23.42;;;21.73;;
11620;SDS011;5866;49.094;11.900;2023-03-31T07:59:56;19.27;;;17.63;;
11620;SDS011;5866;49.094;11.900;2023-03-31T08:02:23;24.55;;;22.95;;
11620;SDS011;5866;49.094;11.900;2023-03-31T08:04:53;54.17;;;50.67;;
11620;SDS011;5866;49.094;11.900;2023-03-31T08:07:20;50.50;;;47.22;;
11620;SDS011;5866;49.094;11.900;2023-03-31T08:09:48;44.30;;;41.45;;
11620;SDS011;5866;49.094;11.900;2023-03-31T08:12:15;63.55;;;59.80;;
11620;SDS011;5866;49.094;11.900;2023-03-31T08:14:43;58.30;;;54.75;;
11620;SDS011;5866;49.094;11.900;2023-03-31T08:17:10;60.78;;;57.20;;
11620;SDS011;5866;49.094;11.900;2023-03-31T08:19:38;53.90;;;50.47;;
11620;SDS011;5866;49.094;11.900;2023-03-31T08:22:07;56.10;;;52.33;;
11620;SDS011;5866;49.094;11.900;2023-03-31T08:24:34;30.45;;;28.25;;
11620;SDS011;5866;49.094;11.900;2023-03-31T08:27:02;29.52;;;27.35;;
11620;SDS011;5866;49.094;11.900;2023-03-31T08:29:29;72.32;;;67.85;;
11620;SDS011;5866;49.094;11.900;2023-03-31T08:31:57;63.28;;;59.38;;
11620;SDS011;5866;49.094;11.900;2023-03-31T08:34:25;50.78;;;44.92;;
11620;SDS011;5866;49.094;11.900;2023-03-31T08:36:53;35.75;;;33.25;;
11620;SDS011;5866;49.094;11.900;2023-03-31T08:39:23;28.52;;;26.52;;
11620;SDS011;5866;49.094;11.900;2023-03-31T08:41:53;23.13;;;21.05;;
11620;SDS011;5866;49.094;11.900;2023-03-31T08:44:25;73.88;;;68.68;;
11620;SDS011;5866;49.094;11.900;2023-03-31T08:46:58;76.43;;;71.03;;
11620;SDS011;5866;49.094;11.900;2023-03-31T08:49:30;59.22;;;54.35;;
11620;SDS011;5866;49.094;11.900;2023-03-31T08:52:06;99.90;;;93.57;;
11620;SDS011;5866;49.094;11.900;2023-03-31T08:54:40;160.27;;;150.73;;
11620;SDS011;5866;49.094;11.900;2023-03-31T08:57:11;192.35;;;181.30;;
11620;SDS011;5866;49.094;11.900;2023-03-31T08:59:44;165.20;;;155.90;;
11620;SDS011;5866;49.094;11.900;2023-03-31T09:02:15;180.88;;;170.38;;
11620;SDS011;5866;49.094;11.900;2023-03-31T09:04:57;175.90;;;165.98;;
11620;SDS011;5866;49.094;11.900;2023-03-31T09:07:39;103.65;;;97.50;;
11620;SDS011;5866;49.094;11.900;2023-03-31T09:10:25;300.10;;;283.73;;
11620;SDS011;5866;49.094;11.900;2023-03-31T09:13:02;358.92;;;339.08;;
11620;SDS011;5866;49.094;11.900;2023-03-31T09:15:44;228.93;;;216.00;;
11620;SDS011;5866;49.094;11.900;2023-03-31T09:18:17;61.38;;;57.33;;
11620;SDS011;5866;49.094;11.900;2023-03-31T09:20:53;195.38;;;184.60;;
11620;SDS011;5866;49.094;11.900;2023-03-31T09:23:29;234.57;;;221.93;;
11620;SDS011;5866;49.094;11.900;2023-03-31T09:26:03;239.55;;;226.52;;
11620;SDS011;5866;49.094;11.900;2023-03-31T09:28:33;297.65;;;280.63;;
11620;SDS011;5866;49.094;11.900;2023-03-31T09:31:07;348.17;;;328.50;;
11620;SDS011;5866;49.094;11.900;2023-03-31T09:33:39;110.40;;;103.50;;
11620;SDS011;5866;49.094;11.900;2023-03-31T09:36:12;316.42;;;299.17;;
11620;SDS011;5866;49.094;11.900;2023-03-31T09:38:44;246.40;;;232.82;;
11620;SDS011;5866;49.094;11.900;2023-03-31T09:41:14;353.13;;;333.83;;
11620;SDS011;5866;49.094;11.900;2023-03-31T09:43:43;207.98;;;196.07;;
11620;SDS011;5866;49.094;11.900;2023-03-31T09:46:14;253.63;;;239.60;;
11620;SDS011;5866;49.094;11.900;2023-03-31T09:48:49;180.82;;;170.43;;
11620;SDS011;5866;49.094;11.900;2023-03-31T09:51:22;261.60;;;245.90;;
11620;SDS011;5866;49.094;11.900;2023-03-31T09:53:57;104.95;;;98.45;;
11620;SDS011;5866;49.094;11.900;2023-03-31T09:56:33;64.75;;;60.38;;
11620;SDS011;5866;49.094;11.900;2023-03-31T09:59:12;82.25;;;77.30;;
11620;SDS011;5866;49.094;11.900;2023-03-31T10:01:42;26.10;;;24.35;;
11620;SDS011;5866;49.094;11.900;2023-03-31T10:04:15;15.02;;;13.75;;
11620;SDS011;5866;49.094;11.900;2023-03-31T10:06:47;40.08;;;37.42;;
11620;SDS011;5866;49.094;11.900;2023-03-31T10:09:15;30.00;;;27.77;;
11620;SDS011;5866;49.094;11.900;2023-03-31T10:11:55;13.95;;;12.75;;
11620;SDS011;5866;49.094;11.900;2023-03-31T10:14:25;14.95;;;13.85;;
11620;SDS011;5866;49.094;11.900;2023-03-31T10:16:58;15.45;;;14.25;;
11620;SDS011;5866;49.094;11.900;2023-03-31T10:19:31;12.00;;;11.02;;
11620;SDS011;5866;49.094;11.900;2023-03-31T10:22:01;16.77;;;15.73;;
11620;SDS011;5866;49.094;11.900;2023-03-31T10:24:38;17.52;;;16.17;;
11620;SDS011;5866;49.094;11.900;2023-03-31T10:27:12;7.50;;;6.80;;
11620;SDS011;5866;49.094;11.900;2023-03-31T10:29:48;9.93;;;6.03;;
11620;SDS011;5866;49.094;11.900;2023-03-31T10:32:20;8.38;;;7.38;;
11620;SDS011;5866;49.094;11.900;2023-03-31T10:34:51;8.35;;;7.55;;
11620;SDS011;5866;49.094;11.900;2023-03-31T10:37:20;8.30;;;6.38;;
11620;SDS011;5866;49.094;11.900;2023-03-31T10:39:55;6.05;;;5.65;;
11620;SDS011;5866;49.094;11.900;2023-03-31T10:42:25;7.75;;;6.90;;
11620;SDS011;5866;49.094;11.900;2023-03-31T10:45:09;13.68;;;12.77;;
11620;SDS011;5866;49.094;11.900;2023-03-31T10:47:52;17.23;;;16.05;;
11620;SDS011;5866;49.094;11.900;2023-03-31T10:50:25;9.98;;;9.18;;
11620;SDS011;5866;49.094;11.900;2023-03-31T10:52:59;9.18;;;8.38;;
11620;SDS011;5866;49.094;11.900;2023-03-31T10:55:31;8.68;;;7.82;;
11620;SDS011;5866;49.094;11.900;2023-03-31T10:58:06;25.45;;;23.90;;
11620;SDS011;5866;49.094;11.900;2023-03-31T11:00:48;25.27;;;23.83;;
11620;SDS011;5866;49.094;11.900;2023-03-31T11:03:34;29.13;;;27.45;;
11620;SDS011;5866;49.094;11.900;2023-03-31T11:06:12;16.58;;;15.40;;
11620;SDS011;5866;49.094;11.900;2023-03-31T11:08:46;15.40;;;14.30;;
11620;SDS011;5866;49.094;11.900;2023-03-31T11:11:29;11.40;;;10.55;;
11620;SDS011;5866;49.094;11.900;2023-03-31T11:14:15;25.23;;;23.63;;
11620;SDS011;5866;49.094;11.900;2023-03-31T11:16:57;17.70;;;16.52;;
11620;SDS011;5866;49.094;11.900;2023-03-31T11:19:34;17.80;;;16.40;;
11620;SDS011;5866;49.094;11.900;2023-03-31T11:22:11;18.38;;;17.17;;
11620;SDS011;5866;49.094;11.900;2023-03-31T11:24:59;19.65;;;18.35;;
11620;SDS011;5866;49.094;11.900;2023-03-31T11:27:41;21.75;;;20.30;;
11620;SDS011;5866;49.094;11.900;2023-03-31T11:30:23;9.77;;;9.07;;
11620;SDS011;5866;49.094;11.900;2023-03-31T11:32:57;5.00;;;4.05;;
11620;SDS011;5866;49.094;11.900;2023-03-31T11:35:47;10.32;;;9.57;;
11620;SDS011;5866;49.094;11.900;2023-03-31T11:38:31;5.45;;;5.05;;
11620;SDS011;5866;49.094;11.900;2023-03-31T11:41:08;11.85;;;11.02;;
11620;SDS011;5866;49.094;11.900;2023-03-31T11:43:41;16.88;;;15.68;;
11620;SDS011;5866;49.094;11.900;2023-03-31T11:46:12;18.10;;;17.00;;
11620;SDS011;5866;49.094;11.900;2023-03-31T11:48:45;16.08;;;15.07;;
11620;SDS011;5866;49.094;11.900;2023-03-31T11:51:18;20.20;;;19.00;;
11620;SDS011;5866;49.094;11.900;2023-03-31T11:53:47;17.98;;;16.73;;
11620;SDS011;5866;49.094;11.900;2023-03-31T11:56:19;13.45;;;12.35;;
11620;SDS011;5866;49.094;11.900;2023-03-31T11:58:50;9.18;;;8.52;;
11620;SDS011;5866;49.094;11.900;2023-03-31T12:01:24;5.80;;;3.95;;
11620;SDS011;5866;49.094;11.900;2023-03-31T12:03:58;6.75;;;4.85;;
11620;SDS011;5866;49.094;11.900;2023-03-31T12:06:31;5.15;;;4.60;;
11620;SDS011;5866;49.094;11.900;2023-03-31T12:09:03;4.60;;;4.22;;
11620;SDS011;5866;49.094;11.900;2023-03-31T12:11:36;5.85;;;3.75;;
11620;SDS011;5866;49.094;11.900;2023-03-31T12:14:10;4.43;;;3.90;;
11620;SDS011;5866;49.094;11.900;2023-03-31T12:16:50;4.90;;;4.40;;
11620;SDS011;5866;49.094;11.900;2023-03-31T12:19:20;4.95;;;3.22;;
11620;SDS011;5866;49.094;11.900;2023-03-31T12:21:54;4.25;;;3.72;;
11620;SDS011;5866;49.094;11.900;2023-03-31T12:24:25;3.90;;;3.53;;
11620;SDS011;5866;49.094;11.900;2023-03-31T12:26:56;5.10;;;2.95;;
11620;SDS011;5866;49.094;11.900;2023-03-31T12:29:30;2.38;;;1.98;;
11620;SDS011;5866;49.094;11.900;2023-03-31T12:32:02;2.67;;;2.47;;
11620;SDS011;5866;49.094;11.900;2023-03-31T12:34:37;3.20;;;2.78;;
11620;SDS011;5866;49.094;11.900;2023-03-31T12:37:23;3.83;;;3.53;;
11620;SDS011;5866;49.094;11.900;2023-03-31T12:40:06;2.42;;;2.33;;
11620;SDS011;5866;49.094;11.900;2023-03-31T12:42:52;3.35;;;3.08;;
11620;SDS011;5866;49.094;11.900;2023-03-31T12:45:30;7.57;;;7.13;;
11620;SDS011;5866;49.094;11.900;2023-03-31T12:48:12;5.72;;;5.22;;
11620;SDS011;5866;49.094;11.900;2023-03-31T12:50:50;2.80;;;2.60;;
11620;SDS011;5866;49.094;11.900;2023-03-31T12:53:29;4.18;;;3.90;;
11620;SDS011;5866;49.094;11.900;2023-03-31T12:56:01;2.92;;;2.67;;
11620;SDS011;5866;49.094;11.900;2023-03-31T12:58:38;2.45;;;1.95;;
11620;SDS011;5866;49.094;11.900;2023-03-31T13:01:11;3.03;;;2.83;;
11620;SDS011;5866;49.094;11.900;2023-03-31T13:03:44;4.07;;;2.67;;
11620;SDS011;5866;49.094;11.900;2023-03-31T13:06:51;4.00;;;2.75;;
11620;SDS011;5866;49.094;11.900;2023-03-31T13:12:22;2.75;;;2.55;;
11620;SDS011;5866;49.094;11.900;2023-03-31T13:14:53;2.72;;;2.10;;
11620;SDS011;5866;49.094;11.900;2023-03-31T13:17:26;2.42;;;2.22;;
11620;SDS011;5866;49.094;11.900;2023-03-31T13:20:15;7.95;;;2.33;;
11620;SDS011;5866;49.094;11.900;2023-03-31T13:22:54;3.85;;;3.53;;
11620;SDS011;5866;49.094;11.900;2023-03-31T13:28:23;3.92;;;2.05;;
11620;SDS011;5866;49.094;11.900;2023-03-31T13:30:57;6.05;;;3.90;;
11620;SDS011;5866;49.094;11.900;2023-03-31T14:24:12;8.23;;;7.82;;
11620;SDS011;5866;49.094;11.900;2023-03-31T14:26:49;8.00;;;7.50;;
11620;SDS011;5866;49.094;11.900;2023-03-31T14:29:23;5.93;;;5.63;;
11620;SDS011;5866;49.094;11.900;2023-03-31T14:31:58;4.40;;;3.97;;
11620;SDS011;5866;49.094;11.900;2023-03-31T14:34:36;6.47;;;5.90;;
11620;SDS011;5866;49.094;11.900;2023-03-31T14:37:16;5.43;;;5.13;;
11620;SDS011;5866;49.094;11.900;2023-03-31T14:39:47;6.40;;;6.07;;
11620;SDS011;5866;49.094;11.900;2023-03-31T14:42:18;3.58;;;3.38;;
11620;SDS011;5866;49.094;11.900;2023-03-31T14:44:53;5.57;;;4.72;;
11620;SDS011;5866;49.094;11.900;2023-03-31T14:47:22;6.72;;;4.28;;
11620;SDS011;5866;49.094;11.900;2023-03-31T14:50:00;4.95;;;4.55;;
11620;SDS011;5866;49.094;11.900;2023-03-31T14:52:31;5.28;;;4.95;;
11620;SDS011;5866;49.094;11.900;2023-03-31T14:55:02;4.38;;;4.03;;
11620;SDS011;5866;49.094;11.900;2023-03-31T14:57:31;4.53;;;4.22;;
11620;SDS011;5866;49.094;11.900;2023-03-31T15:00:02;6.18;;;3.38;;
11620;SDS011;5866;49.094;11.900;2023-03-31T15:02:33;4.68;;;3.47;;
11620;SDS011;5866;49.094;11.900;2023-03-31T15:05:03;9.07;;;8.25;;
11620;SDS011;5866;49.094;11.900;2023-03-31T15:07:34;4.13;;;3.80;;
11620;SDS011;5866;49.094;11.900;2023-03-31T15:10:04;6.47;;;6.10;;
11620;SDS011;5866;49.094;11.900;2023-03-31T15:12:34;4.75;;;4.40;;
11620;SDS011;5866;49.094;11.900;2023-03-31T15:15:03;2.78;;;2.58;;
11620;SDS011;5866;49.094;11.900;2023-03-31T15:17:35;3.67;;;3.47;;
11620;SDS011;5866;49.094;11.900;2023-03-31T15:20:20;3.88;;;3.60;;
11620;SDS011;5866;49.094;11.900;2023-03-31T15:22:53;3.80;;;2.38;;
11620;SDS011;5866;49.094;11.900;2023-03-31T15:25:23;4.35;;;3.67;;
11620;SDS011;5866;49.094;11.900;2023-03-31T15:27:53;3.05;;;2.85;;
11620;SDS011;5866;49.094;11.900;2023-03-31T15:30:24;5.72;;;5.40;;
11620;SDS011;5866;49.094;11.900;2023-03-31T15:32:54;3.72;;;2.70;;
11620;SDS011;5866;49.094;11.900;2023-03-31T15:35:42;3.72;;;3.53;;
11620;SDS011;5866;49.094;11.900;2023-03-31T15:38:10;3.95;;;2.53;;
11620;SDS011;5866;49.094;11.900;2023-03-31T15:40:42;3.80;;;3.60;;
11620;SDS011;5866;49.094;11.900;2023-03-31T15:43:13;13.07;;;12.27;;
11620;SDS011;5866;49.094;11.900;2023-03-31T15:45:47;9.57;;;9.00;;
11620;SDS011;5866;49.094;11.900;2023-03-31T15:48:17;3.22;;;3.00;;
11620;SDS011;5866;49.094;11.900;2023-03-31T15:50:48;3.25;;;2.10;;
11620;SDS011;5866;49.094;11.900;2023-03-31T15:53:24;4.85;;;3.92;;
11620;SDS011;5866;49.094;11.900;2023-03-31T15:55:56;4.22;;;3.22;;
11620;SDS011;5866;49.094;11.900;2023-03-31T16:01:21;3.50;;;3.05;;
11620;SDS011;5866;49.094;11.900;2023-03-31T16:03:53;3.55;;;3.30;;